Time;durP1;ratioP1;P1;durP2;ratioP2;P2;SDS_P1;SDS_P2;PMS_P1;PMS_P2;Temp;Humidity;BMP_temperature;BMP_pressure;BME280_temperature;BME280_humidity;BME280_pressure;Samples;Min_cycle;Max_cycle;Signal;HPM_P1;HPM_P2
2023/01/05 00:01:39;;;;;;;;;;;;;;;12.59;58.30;100003.66;4458489;32;33724;-67
2023/01/05 00:04:07;;;;;;;;;;;;;;;12.93;57.10;99995.56;4472060;32;33759;-67
2023/01/05 00:06:36;;;;;;;;;;;;;;;12.74;57.51;99980.06;4473516;31;34087;-68
2023/01/05 00:09:03;;;;;;;;;;;;;;;12.31;58.75;99962.00;4472666;32;34085;-67
2023/01/05 00:22:40;;;;;;;;;;;;;;;12.55;57.77;99937.72;4476268;32;35092;-70
2023/01/05 00:25:09;;;;;;;;;;;;;;;12.52;58.21;99928.09;4470245;32;31773;-68
2023/01/05 00:27:40;;;;;;;;;;;;;;;12.71;57.69;99927.47;4474314;32;34986;-68
2023/01/05 00:30:08;;;;;;;;;;;;;;;12.92;56.85;99921.34;4475219;32;34007;-68
2023/01/05 00:32:36;;;;;;;;;;;;;;;12.90;57.02;99923.28;4481974;31;35342;-69
2023/01/05 00:35:03;;;;;;;;;;;;;;;12.93;56.92;99925.72;4467182;32;32790;-68
2023/01/05 00:37:32;;;;;;;;;;;;;;;12.89;57.11;99929.62;4470867;32;34921;-69
2023/01/05 00:40:00;;;;;;;;;;;;;;;13.05;56.52;99938.16;4483421;32;35773;-69
2023/01/05 00:42:27;;;;;;;;;;;;;;;13.10;56.42;99957.44;4473175;32;34108;-67
2023/01/05 00:44:54;;;;;;;;;;;;;;;12.44;58.67;99937.72;4476344;32;34252;-68
2023/01/05 00:47:22;;;;;;;;;;;;;;;12.94;57.18;99930.97;4474076;32;34147;-68
2023/01/05 00:49:49;;;;;;;;;;;;;;;13.10;56.37;99925.22;4467034;32;33965;-67
2023/01/05 00:52:16;;;;;;;;;;;;;;;13.03;56.34;99934.72;4470647;32;33500;-67
2023/01/05 00:54:44;;;;;;;;;;;;;;;12.91;56.64;99928.53;4470338;32;33436;-68
2023/01/05 00:57:12;;;;;;;;;;;;;;;13.18;55.98;99927.25;4478844;32;34004;-69
2023/01/05 00:59:39;;;;;;;;;;;;;;;12.33;58.15;99906.38;4476429;31;34716;-68
2023/01/05 01:02:06;;;;;;;;;;;;;;;13.17;55.69;99928.25;4468054;32;33639;-69
2023/01/05 01:04:34;;;;;;;;;;;;;;;12.95;56.35;99935.38;4474528;32;32960;-69
2023/01/05 01:07:02;;;;;;;;;;;;;;;12.56;57.40;99923.34;4472029;32;34192;-68
2023/01/05 01:09:30;;;;;;;;;;;;;;;13.21;55.59;99927.84;4476042;31;34524;-69
2023/01/05 01:11:57;;;;;;;;;;;;;;;12.44;57.98;99919.78;4468255;32;33930;-68
2023/01/05 01:14:25;;;;;;;;;;;;;;;12.98;56.22;99926.22;4455597;32;32068;-68
2023/01/05 01:16:52;;;;;;;;;;;;;;;13.21;55.62;99919.78;4467887;32;34453;-68
2023/01/05 01:19:20;;;;;;;;;;;;;;;13.02;56.04;99930.34;4466979;31;34146;-69
2023/01/05 01:21:48;;;;;;;;;;;;;;;13.03;55.96;99921.28;4477087;32;35605;-71
2023/01/05 01:24:17;;;;;;;;;;;;;;;12.96;55.97;99903.97;4476292;32;33190;-69
2023/01/05 01:26:44;;;;;;;;;;;;;;;13.02;55.74;99900.78;4476060;32;34232;-68
2023/01/05 01:29:12;;;;;;;;;;;;;;;13.13;55.31;99916.91;4467952;32;34411;-67
2023/01/05 01:31:39;;;;;;;;;;;;;;;12.53;56.69;99926.28;4482890;31;32349;-67
2023/01/05 01:34:07;;;;;;;;;;;;;;;12.73;56.36;99905.84;4478630;32;35473;-68
2023/01/05 01:36:34;;;;;;;;;;;;;;;12.92;55.69;99905.22;4478153;32;35277;-67
2023/01/05 01:39:02;;;;;;;;;;;;;;;12.85;56.11;99885.22;4484634;32;34218;-68
2023/01/05 01:41:31;;;;;;;;;;;;;;;13.01;55.70;99904.47;4478530;32;34339;-69
2023/01/05 01:43:58;;;;;;;;;;;;;;;12.98;55.66;99897.50;4482465;32;33594;-69
2023/01/05 01:46:26;;;;;;;;;;;;;;;13.03;55.66;99894.41;4475149;32;34077;-69
2023/01/05 01:48:58;;;;;;;;;;;;;;;13.08;55.44;99894.91;4470870;32;34785;-71
2023/01/05 01:51:29;;;;;;;;;;;;;;;13.16;55.20;99878.13;4474940;32;33213;-69
2023/01/05 01:53:57;;;;;;;;;;;;;;;13.00;55.68;99868.69;4471211;32;33067;-69
2023/01/05 01:56:25;;;;;;;;;;;;;;;13.13;55.38;99851.50;4478779;32;33961;-68
2023/01/05 01:58:53;;;;;;;;;;;;;;;13.08;55.68;99873.41;4477541;32;34250;-68
2023/01/05 02:01:20;;;;;;;;;;;;;;;13.19;55.05;99857.25;4481702;32;34919;-68
2023/01/05 02:03:48;;;;;;;;;;;;;;;12.92;55.78;99849.66;4461743;31;34441;-67
2023/01/05 02:06:16;;;;;;;;;;;;;;;12.57;57.07;99856.06;4457342;32;35140;-67
2023/01/05 02:08:43;;;;;;;;;;;;;;;12.93;55.93;99855.87;4458713;32;34531;-70
2023/01/05 02:11:30;;;;;;;;;;;;;;;13.22;54.99;99865.03;4456244;32;33742;-68
2023/01/05 02:14:04;;;;;;;;;;;;;;;12.93;55.77;99858.56;4454223;32;33332;-70
2023/01/05 02:16:42;;;;;;;;;;;;;;;13.16;55.22;99881.69;4466351;32;34925;-70
2023/01/05 02:19:12;;;;;;;;;;;;;;;13.24;55.07;99870.31;4467939;32;34278;-70
2023/01/05 02:21:46;;;;;;;;;;;;;;;12.90;56.04;99858.81;4474982;32;34031;-70
2023/01/05 02:24:16;;;;;;;;;;;;;;;13.15;55.32;99845.03;4456872;32;33223;-69
2023/01/05 02:26:44;;;;;;;;;;;;;;;13.29;54.83;99835.88;4473556;32;33033;-69
2023/01/05 02:29:23;;;;;;;;;;;;;;;13.24;54.87;99828.19;4468753;32;34209;-70
2023/01/05 02:31:57;;;;;;;;;;;;;;;13.37;54.46;99837.91;4453325;32;32755;-69
2023/01/05 02:34:29;;;;;;;;;;;;;;;13.43;54.30;99840.06;4469550;32;34836;-68
2023/01/05 02:36:57;;;;;;;;;;;;;;;13.25;54.84;99824.50;4473953;31;33796;-69
2023/01/05 02:39:28;;;;;;;;;;;;;;;13.23;54.87;99817.53;4481900;32;33436;-68
2023/01/05 02:42:02;;;;;;;;;;;;;;;13.41;54.33;99812.44;4466778;32;35250;-68
2023/01/05 02:44:31;;;;;;;;;;;;;;;13.33;54.67;99815.78;4459615;32;32888;-68
2023/01/05 02:47:03;;;;;;;;;;;;;;;13.42;54.42;99808.78;4478359;32;35204;-75
2023/01/05 02:49:31;;;;;;;;;;;;;;;13.47;54.05;99812.78;4466328;32;35653;-72
2023/01/05 02:51:59;;;;;;;;;;;;;;;13.48;54.09;99810.94;4470139;32;35108;-71
2023/01/05 02:54:29;;;;;;;;;;;;;;;12.76;55.95;99819.66;4471491;32;34139;-74
2023/01/05 02:57:02;;;;;;;;;;;;;;;13.16;55.14;99814.50;4465610;32;34038;-69
2023/01/05 02:59:33;;;;;;;;;;;;;;;13.14;55.33;99788.75;4466314;32;34816;-71
2023/01/05 03:02:05;;;;;;;;;;;;;;;13.25;55.01;99786.88;4450612;32;34043;-69
2023/01/05 03:04:38;;;;;;;;;;;;;;;13.21;55.19;99785.41;4457798;32;33740;-68
2023/01/05 03:07:07;;;;;;;;;;;;;;;13.34;54.70;99776.31;4463016;32;35007;-70
2023/01/05 03:09:37;;;;;;;;;;;;;;;13.31;54.89;99801.63;4468809;32;34657;-70
2023/01/05 03:14:54;;;;;;;;;;;;;;;13.21;55.27;99790.78;4462769;32;33402;-67
2023/01/05 03:17:43;;;;;;;;;;;;;;;13.24;55.05;99774.41;4466839;32;34754;-67
2023/01/05 03:20:12;;;;;;;;;;;;;;;13.16;55.29;99762.56;4466030;32;35294;-67
2023/01/05 03:37:20;;;;;;;;;;;;;;;13.04;56.08;99775.25;4469120;31;33795;-71
2023/01/05 03:39:47;;;;;;;;;;;;;;;13.11;55.76;99800.59;4459199;32;33923;-72
2023/01/05 03:42:14;;;;;;;;;;;;;;;13.23;55.17;99786.13;4468479;32;35365;-71
2023/01/05 03:44:45;;;;;;;;;;;;;;;12.90;56.32;99749.50;4450055;32;32634;-70
2023/01/05 03:47:13;;;;;;;;;;;;;;;11.63;59.97;99736.63;4459102;32;33481;-72
2023/01/05 03:49:42;;;;;;;;;;;;;;;11.85;60.25;99700.06;4472572;32;33576;-73
2023/01/05 03:52:09;;;;;;;;;;;;;;;12.20;59.31;99702.56;4476442;32;34757;-70
2023/01/05 03:54:39;;;;;;;;;;;;;;;12.01;59.78;99697.84;4472275;32;33573;-70
2023/01/05 03:57:06;;;;;;;;;;;;;;;11.89;60.46;99682.75;4479513;32;33872;-70
2023/01/05 03:59:34;;;;;;;;;;;;;;;12.16;59.59;99676.09;4468080;31;34019;-75
2023/01/05 04:02:03;;;;;;;;;;;;;;;12.50;58.84;99683.06;4469784;32;34978;-70
2023/01/05 04:04:31;;;;;;;;;;;;;;;12.15;60.21;99677.94;4472018;32;32853;-72
2023/01/05 04:06:58;;;;;;;;;;;;;;;12.67;58.73;99689.69;4464923;32;31756;-70
2023/01/05 04:09:28;;;;;;;;;;;;;;;12.93;57.52;99683.94;4466959;32;34903;-70
2023/01/05 04:11:56;;;;;;;;;;;;;;;13.03;57.00;99690.22;4469640;32;34195;-68
2023/01/05 04:14:24;;;;;;;;;;;;;;;12.87;57.13;99685.31;4481812;31;35279;-69
2023/01/05 04:16:52;;;;;;;;;;;;;;;12.57;58.27;99689.63;4480372;32;33330;-72
2023/01/05 04:19:20;;;;;;;;;;;;;;;12.59;58.30;99693.03;4475474;32;35093;-69
2023/01/05 04:21:49;;;;;;;;;;;;;;;12.55;58.47;99702.34;4476829;32;35245;-69
2023/01/05 04:24:16;;;;;;;;;;;;;;;12.91;57.39;99704.72;4466775;32;32483;-69
2023/01/05 04:26:44;;;;;;;;;;;;;;;13.00;56.97;99701.22;4471126;32;33391;-68
2023/01/05 04:29:12;;;;;;;;;;;;;;;13.01;56.79;99709.19;4471279;32;33688;-69
2023/01/05 04:31:39;;;;;;;;;;;;;;;13.07;56.68;99694.38;4476404;31;35213;-69
2023/01/05 04:34:07;;;;;;;;;;;;;;;13.02;56.43;99697.44;4464571;32;34257;-69
2023/01/05 04:36:35;;;;;;;;;;;;;;;12.91;57.07;99704.72;4475867;32;33895;-69
2023/01/05 04:39:03;;;;;;;;;;;;;;;13.14;56.37;99694.69;4477404;32;33933;-71
2023/01/05 04:41:31;;;;;;;;;;;;;;;13.01;56.66;99698.44;4479192;32;33744;-74
2023/01/05 04:43:58;;;;;;;;;;;;;;;12.94;56.96;99678.44;4477553;31;34281;-67
2023/01/05 04:46:27;;;;;;;;;;;;;;;12.71;57.59;99675.03;4468457;32;32225;-69
2023/01/05 04:48:54;;;;;;;;;;;;;;;12.95;57.18;99677.47;4469963;31;35316;-69
2023/01/05 04:51:23;;;;;;;;;;;;;;;13.09;56.51;99681.63;4467271;32;34421;-69
2023/01/05 04:53:50;;;;;;;;;;;;;;;12.93;57.09;99684.78;4476143;32;35103;-71
2023/01/05 04:56:18;;;;;;;;;;;;;;;12.94;57.07;99689.19;4480447;32;33363;-70
2023/01/05 04:58:47;;;;;;;;;;;;;;;12.84;57.24;99685.59;4466809;32;35209;-70
2023/01/05 05:01:14;;;;;;;;;;;;;;;13.09;56.33;99683.47;4469655;32;33955;-70
2023/01/05 05:03:42;;;;;;;;;;;;;;;13.27;55.94;99666.66;4466446;32;34157;-70
2023/01/05 05:06:10;;;;;;;;;;;;;;;13.11;56.14;99662.72;4469172;32;33910;-70
2023/01/05 05:08:37;;;;;;;;;;;;;;;13.24;55.96;99666.91;4475670;32;34078;-71
2023/01/05 05:11:04;;;;;;;;;;;;;;;13.39;55.70;99670.09;4470222;32;34579;-69
2023/01/05 05:13:32;;;;;;;;;;;;;;;13.46;55.33;99668.56;4468683;32;34379;-70
2023/01/05 05:15:59;;;;;;;;;;;;;;;13.21;56.00;99666.28;4475476;32;33420;-71
2023/01/05 05:18:27;;;;;;;;;;;;;;;13.39;55.37;99667.41;4470555;32;34161;-70
2023/01/05 05:20:55;;;;;;;;;;;;;;;13.47;55.19;99661.34;4476438;32;32882;-70
2023/01/05 05:23:23;;;;;;;;;;;;;;;13.37;55.30;99660.47;4474357;32;34822;-70
2023/01/05 05:25:51;;;;;;;;;;;;;;;13.05;56.22;99656.03;4473339;31;33844;-71
2023/01/05 05:28:19;;;;;;;;;;;;;;;12.88;56.71;99636.00;4474574;32;33874;-71
2023/01/05 05:30:47;;;;;;;;;;;;;;;12.61;57.53;99631.12;4469375;32;34017;-70
2023/01/05 05:33:15;;;;;;;;;;;;;;;11.85;59.73;99633.03;4468280;32;34168;-70
2023/01/05 05:35:42;;;;;;;;;;;;;;;11.99;59.64;99640.78;4457261;32;33433;-71
2023/01/05 05:38:09;;;;;;;;;;;;;;;11.84;60.04;99645.56;4475103;31;34279;-69
2023/01/05 05:40:37;;;;;;;;;;;;;;;11.84;60.29;99636.66;4470009;32;34178;-72
2023/01/05 05:43:04;;;;;;;;;;;;;;;11.97;59.89;99644.56;4472559;32;34839;-70
2023/01/05 05:45:31;;;;;;;;;;;;;;;12.60;57.93;99648.22;4467372;32;34393;-72
2023/01/05 05:48:00;;;;;;;;;;;;;;;12.65;57.23;99639.78;4466959;32;34050;-71
2023/01/05 05:50:27;;;;;;;;;;;;;;;12.59;57.13;99633.13;4472362;32;35184;-68
2023/01/05 05:52:54;;;;;;;;;;;;;;;12.50;57.92;99644.63;4475598;32;34389;-67
2023/01/05 05:55:22;;;;;;;;;;;;;;;12.67;56.99;99629.78;4473055;32;32142;-71
2023/01/05 05:57:49;;;;;;;;;;;;;;;12.67;57.25;99627.94;4475605;32;34934;-69
2023/01/05 06:00:16;;;;;;;;;;;;;;;12.29;57.98;99637.38;4469896;32;34625;-69
2023/01/05 06:02:44;;;;;;;;;;;;;;;12.42;58.04;99622.94;4469511;32;32840;-67
2023/01/05 06:05:11;;;;;;;;;;;;;;;12.65;56.95;99611.13;4473760;31;32863;-67
2023/01/05 06:07:38;;;;;;;;;;;;;;;12.70;56.72;99622.28;4468807;32;34458;-68
2023/01/05 06:10:06;;;;;;;;;;;;;;;12.71;56.44;99633.88;4472074;31;33026;-68
2023/01/05 06:12:33;;;;;;;;;;;;;;;12.94;55.51;99667.72;4474977;32;34202;-68
2023/01/05 06:15:01;;;;;;;;;;;;;;;12.96;55.42;99656.81;4478281;32;33727;-68
2023/01/05 06:17:28;;;;;;;;;;;;;;;12.66;56.17;99650.41;4473600;32;35376;-69
2023/01/05 06:19:56;;;;;;;;;;;;;;;12.70;56.09;99651.84;4473846;32;34544;-68
2023/01/05 06:22:23;;;;;;;;;;;;;;;12.51;56.62;99646.31;4472673;32;35487;-69
2023/01/05 06:24:50;;;;;;;;;;;;;;;12.76;55.34;99635.19;4480399;32;33298;-68
2023/01/05 06:27:17;;;;;;;;;;;;;;;12.91;54.79;99640.25;4461632;32;32676;-70
2023/01/05 06:29:45;;;;;;;;;;;;;;;12.92;54.80;99628.53;4468816;32;33404;-69
2023/01/05 06:32:12;;;;;;;;;;;;;;;12.88;54.87;99622.56;4464245;32;33066;-69
2023/01/05 06:34:39;;;;;;;;;;;;;;;12.82;55.36;99610.50;4470136;32;33609;-71
2023/01/05 06:37:07;;;;;;;;;;;;;;;12.88;54.95;99606.44;4470708;32;33997;-71
2023/01/05 06:39:34;;;;;;;;;;;;;;;12.86;55.10;99608.41;4455753;32;34438;-68
2023/01/05 06:42:01;;;;;;;;;;;;;;;12.94;54.60;99595.19;4456467;32;35005;-69
2023/01/05 06:44:29;;;;;;;;;;;;;;;12.19;56.93;99588.16;4470721;32;33125;-69
2023/01/05 06:46:56;;;;;;;;;;;;;;;12.53;56.10;99598.72;4469481;32;34253;-70
2023/01/05 06:49:23;;;;;;;;;;;;;;;12.69;55.75;99584.84;4465627;32;34269;-68
2023/01/05 06:51:50;;;;;;;;;;;;;;;12.58;56.11;99575.00;4466919;31;34118;-69
2023/01/05 06:54:18;;;;;;;;;;;;;;;12.42;56.14;99575.47;4478463;31;33875;-68
2023/01/05 06:56:45;;;;;;;;;;;;;;;12.78;54.95;99573.31;4466757;32;35077;-70
2023/01/05 06:59:12;;;;;;;;;;;;;;;12.87;54.60;99566.28;4457251;32;35461;-68
2023/01/05 07:01:40;;;;;;;;;;;;;;;12.90;54.47;99568.69;4473416;32;35097;-70
2023/01/05 07:04:07;;;;;;;;;;;;;;;12.78;55.13;99579.53;4458311;32;32204;-69
2023/01/05 07:06:35;;;;;;;;;;;;;;;12.44;55.26;99578.03;4479624;32;31609;-69
2023/01/05 07:09:02;;;;;;;;;;;;;;;12.85;54.68;99562.88;4465887;32;35067;-70
2023/01/05 07:11:29;;;;;;;;;;;;;;;13.07;53.51;99556.50;4471927;31;34128;-71
2023/01/05 07:13:57;;;;;;;;;;;;;;;12.80;54.45;99561.44;4480279;32;33369;-68
2023/01/05 07:16:24;;;;;;;;;;;;;;;12.62;55.00;99562.19;4469216;32;33777;-69
2023/01/05 07:18:52;;;;;;;;;;;;;;;12.93;54.11;99555.00;4478683;32;34518;-69
2023/01/05 07:21:19;;;;;;;;;;;;;;;12.63;55.16;99547.78;4476298;32;34043;-69
2023/01/05 07:23:46;;;;;;;;;;;;;;;12.80;54.98;99547.16;4481577;32;33203;-69
2023/01/05 07:26:13;;;;;;;;;;;;;;;12.64;55.39;99554.84;4470382;32;34185;-68
2023/01/05 07:28:41;;;;;;;;;;;;;;;12.63;55.05;99569.25;4466675;32;33003;-68
2023/01/05 07:31:08;;;;;;;;;;;;;;;10.94;60.66;99578.62;4472619;31;35437;-68
2023/01/05 07:33:36;;;;;;;;;;;;;;;11.92;57.92;99579.75;4478205;32;33589;-70
2023/01/05 07:36:06;;;;;;;;;;;;;;;12.28;56.50;99571.28;4471094;32;34156;-68
2023/01/05 07:38:34;;;;;;;;;;;;;;;12.50;55.73;99583.72;4472794;32;34157;-68
2023/01/05 07:41:01;;;;;;;;;;;;;;;11.62;58.70;99565.16;4472601;32;37292;-69
2023/01/05 07:43:28;;;;;;;;;;;;;;;12.05;58.04;99558.97;4467265;32;31944;-69
2023/01/05 07:45:57;;;;;;;;;;;;;;;12.52;56.15;99563.00;4468520;32;34020;-69
2023/01/05 07:48:24;;;;;;;;;;;;;;;12.59;56.42;99557.94;4479693;31;34401;-68
2023/01/05 07:50:51;;;;;;;;;;;;;;;12.71;56.17;99546.16;4471589;32;34259;-68
2023/01/05 07:53:19;;;;;;;;;;;;;;;12.49;56.43;99555.19;4468871;32;33322;-68
2023/01/05 07:55:53;;;;;;;;;;;;;;;12.75;56.06;99552.09;4468823;32;34295;-69
2023/01/05 07:58:21;;;;;;;;;;;;;;;12.85;56.02;99553.00;4466144;32;35639;-69
2023/01/05 08:00:49;;;;;;;;;;;;;;;12.95;56.00;99539.59;4475878;32;35183;-69
2023/01/05 08:03:17;;;;;;;;;;;;;;;12.48;57.23;99555.31;4465916;32;33493;-71
2023/01/05 08:05:44;;;;;;;;;;;;;;;12.59;57.35;99574.06;4477269;32;34596;-69
2023/01/05 08:08:12;;;;;;;;;;;;;;;12.77;56.45;99567.06;4482972;32;34279;-68
2023/01/05 08:10:45;;;;;;;;;;;;;;;12.81;56.02;99563.16;4479404;32;33800;-69
2023/01/05 08:15:59;;;;;;;;;;;;;;;13.05;55.46;99553.94;4474792;32;33007;-68
2023/01/05 08:18:26;;;;;;;;;;;;;;;13.36;54.34;99538.66;4472184;32;35043;-69
2023/01/05 08:20:57;;;;;;;;;;;;;;;13.21;54.71;99535.44;4480675;31;34814;-69
2023/01/05 08:23:25;;;;;;;;;;;;;;;13.13;55.16;99529.06;4482758;32;33382;-68
2023/01/05 08:25:55;;;;;;;;;;;;;;;13.21;55.49;99527.38;4464959;32;34569;-68
2023/01/05 08:28:23;;;;;;;;;;;;;;;13.49;54.65;99522.28;4479902;32;34318;-69
2023/01/05 08:31:00;;;;;;;;;;;;;;;13.58;54.34;99520.56;4452818;32;33772;-68
2023/01/05 08:33:27;;;;;;;;;;;;;;;13.63;54.29;99539.84;4465030;31;33069;-69
2023/01/05 08:35:54;;;;;;;;;;;;;;;13.40;55.27;99532.00;4466253;31;34239;-69
2023/01/05 08:38:22;;;;;;;;;;;;;;;13.66;54.66;99528.81;4475160;32;33525;-68
2023/01/05 08:40:49;;;;;;;;;;;;;;;13.63;55.02;99523.69;4478879;32;34396;-69
2023/01/05 08:43:16;;;;;;;;;;;;;;;13.44;55.88;99530.72;4467183;32;32202;-68
2023/01/05 08:45:47;;;;;;;;;;;;;;;13.49;55.79;99530.34;4475236;32;33983;-68
2023/01/05 08:48:15;;;;;;;;;;;;;;;13.41;56.09;99528.31;4470356;32;34111;-71
2023/01/05 08:50:42;;;;;;;;;;;;;;;13.59;55.38;99528.50;4469927;32;34650;-69
2023/01/05 08:53:09;;;;;;;;;;;;;;;13.48;55.54;99540.25;4461416;32;34447;-68
2023/01/05 08:55:36;;;;;;;;;;;;;;;13.59;55.66;99539.25;4461203;32;33774;-69
2023/01/05 08:58:05;;;;;;;;;;;;;;;12.87;58.16;99518.78;4469995;31;35389;-69
2023/01/05 09:00:32;;;;;;;;;;;;;;;12.96;58.26;99514.44;4473909;32;34929;-69
2023/01/05 09:03:00;;;;;;;;;;;;;;;12.83;58.56;99530.78;4468181;31;33698;-70
2023/01/05 09:05:27;;;;;;;;;;;;;;;12.44;59.41;99530.56;4473618;32;34038;-69
2023/01/05 09:07:55;;;;;;;;;;;;;;;12.05;61.02;99527.63;4469737;32;34400;-68
2023/01/05 09:10:22;;;;;;;;;;;;;;;12.09;60.94;99537.09;4478727;31;33894;-69
2023/01/05 09:12:49;;;;;;;;;;;;;;;12.27;60.38;99552.63;4475706;32;33408;-71
2023/01/05 09:15:17;;;;;;;;;;;;;;;12.40;60.26;99563.19;4440939;31;879045;-68
2023/01/05 09:17:44;;;;;;;;;;;;;;;12.34;60.67;99556.50;4471777;32;33403;-69
2023/01/05 09:20:11;;;;;;;;;;;;;;;12.32;61.48;99553.94;4478801;31;33906;-71
2023/01/05 09:22:39;;;;;;;;;;;;;;;12.65;60.82;99545.78;4471542;32;34265;-69
2023/01/05 09:25:06;;;;;;;;;;;;;;;13.03;59.03;99548.69;4475959;32;32689;-69
2023/01/05 09:27:33;;;;;;;;;;;;;;;13.04;59.61;99552.22;4475942;32;35371;-68
2023/01/05 09:30:01;;;;;;;;;;;;;;;13.45;58.01;99548.59;4474436;32;33614;-68
2023/01/05 09:32:28;;;;;;;;;;;;;;;13.24;58.84;99532.53;4463502;32;32973;-69
2023/01/05 09:34:55;;;;;;;;;;;;;;;13.22;58.89;99536.31;4468989;32;34393;-69
2023/01/05 09:37:23;;;;;;;;;;;;;;;13.40;58.58;99517.72;4468211;32;34265;-70
2023/01/05 09:39:50;;;;;;;;;;;;;;;13.82;57.40;99504.87;4463569;32;34256;-69
2023/01/05 09:42:18;;;;;;;;;;;;;;;14.25;56.97;99508.13;4471977;32;32135;-68
2023/01/05 09:44:49;;;;;;;;;;;;;;;14.13;57.31;99512.81;4458732;32;34197;-69
2023/01/05 09:47:24;;;;;;;;;;;;;;;14.20;56.29;99490.56;4455587;32;34411;-70
2023/01/05 09:49:52;;;;;;;;;;;;;;;13.34;58.56;99505.66;4466287;32;34213;-70
2023/01/05 09:52:20;;;;;;;;;;;;;;;13.07;59.45;99492.00;4477495;31;33258;-71
2023/01/05 09:54:47;;;;;;;;;;;;;;;13.07;59.15;99500.91;4473206;32;33902;-70
2023/01/05 09:57:25;;;;;;;;;;;;;;;12.83;60.23;99488.66;4465295;32;35092;-69
2023/01/05 09:59:54;;;;;;;;;;;;;;;13.02;59.60;99489.72;4464177;32;34211;-69
2023/01/05 10:02:21;;;;;;;;;;;;;;;13.20;59.73;99482.72;4450292;32;32072;-67
2023/01/05 10:04:48;;;;;;;;;;;;;;;13.24;60.23;99477.91;4464955;32;33772;-67
2023/01/05 10:07:22;;;;;;;;;;;;;;;13.52;60.28;99476.28;4457311;32;34452;-68
2023/01/05 10:09:50;;;;;;;;;;;;;;;13.69;60.50;99467.50;4461736;32;35219;-68
2023/01/05 10:15:07;;;;;;;;;;;;;;;14.02;59.07;99459.13;4464214;32;32561;-68
2023/01/05 10:17:35;;;;;;;;;;;;;;;14.09;58.71;99460.25;4458825;32;34673;-68
2023/01/05 10:20:09;;;;;;;;;;;;;;;13.54;59.34;99451.94;4478215;32;34210;-70
2023/01/05 10:23:03;;;;;;;;;;;;;;;13.51;59.34;99448.56;4474994;32;33424;-68
2023/01/05 10:25:33;;;;;;;;;;;;;;;13.17;61.16;99447.19;4470150;32;33480;-68
2023/01/05 10:28:21;;;;;;;;;;;;;;;13.41;61.04;99473.72;4465362;32;33984;-70
2023/01/05 10:30:51;;;;;;;;;;;;;;;13.53;60.21;99472.59;4476095;32;32603;-71
2023/01/05 10:33:38;;;;;;;;;;;;;;;13.40;61.10;99466.66;4477315;32;34050;-69
2023/01/05 10:36:24;;;;;;;;;;;;;;;13.25;61.95;99476.94;4469854;32;32807;-69
2023/01/05 10:39:14;;;;;;;;;;;;;;;13.07;62.98;99465.13;4471755;32;35201;-70
2023/01/05 10:41:48;;;;;;;;;;;;;;;12.97;64.13;99473.16;4470231;31;33101;-68
2023/01/05 10:44:53;;;;;;;;;;;;;;;12.83;64.57;99469.00;4467254;32;32933;-70
2023/01/05 10:47:21;;;;;;;;;;;;;;;12.95;64.43;99467.06;4387956;32;33555;-69
2023/01/05 10:49:50;;;;;;;;;;;;;;;12.54;65.72;99468.88;4363041;32;34062;-69
2023/01/05 10:52:18;;;;;;;;;;;;;;;12.61;65.48;99471.88;4425945;32;34454;-70
2023/01/05 10:54:58;;;;;;;;;;;;;;;13.07;64.17;99471.34;4472689;32;34517;-70
2023/01/05 10:57:30;;;;;;;;;;;;;;;13.31;62.15;99472.84;4477053;32;35161;-68
2023/01/05 11:00:28;;;;;;;;;;;;;;;12.96;62.78;99471.44;4481101;32;34318;-67
2023/01/05 11:03:02;;;;;;;;;;;;;;;12.67;63.93;99468.66;4472945;32;32971;-69
2023/01/05 11:05:37;;;;;;;;;;;;;;;12.15;67.77;99452.56;4451411;32;34487;-69
2023/01/05 11:08:24;;;;;;;;;;;;;;;11.92;68.98;99494.78;4473085;32;34021;-68
2023/01/05 11:10:56;;;;;;;;;;;;;;;12.17;69.11;99495.38;4452622;32;32708;-69
2023/01/05 11:13:26;;;;;;;;;;;;;;;12.75;67.34;99499.22;4467607;32;33896;-70
2023/01/05 11:15:55;;;;;;;;;;;;;;;13.02;66.40;99497.78;4446939;32;32285;-70
2023/01/05 11:18:28;;;;;;;;;;;;;;;12.78;66.40;99504.34;4475224;31;34249;-71
2023/01/05 11:21:05;;;;;;;;;;;;;;;13.40;64.22;99509.66;4467736;32;34381;-71
2023/01/05 11:23:42;;;;;;;;;;;;;;;13.67;63.29;99508.97;4466999;32;34371;-70
2023/01/05 11:26:22;;;;;;;;;;;;;;;13.94;62.32;99521.75;4470243;32;33225;-68
2023/01/05 11:28:58;;;;;;;;;;;;;;;14.05;61.81;99510.81;4480836;32;34123;-67
2023/01/05 11:31:27;;;;;;;;;;;;;;;14.04;61.59;99519.91;4476881;32;34350;-68
2023/01/05 11:33:55;;;;;;;;;;;;;;;14.07;61.49;99534.91;4455212;32;33976;-68
2023/01/05 11:36:22;;;;;;;;;;;;;;;14.02;62.00;99535.31;4472524;32;32525;-68
2023/01/05 11:38:50;;;;;;;;;;;;;;;13.59;63.83;99547.34;4485474;32;34200;-71
2023/01/05 11:41:17;;;;;;;;;;;;;;;13.87;62.94;99567.19;4473514;31;34022;-71
2023/01/05 11:43:45;;;;;;;;;;;;;;;12.68;67.01;99554.47;4471236;32;34825;-68
2023/01/05 11:46:14;;;;;;;;;;;;;;;13.01;66.13;99547.12;4469906;32;32372;-69
2023/01/05 11:48:48;;;;;;;;;;;;;;;12.74;67.06;99555.75;4445384;32;32708;-68
2023/01/05 11:51:45;;;;;;;;;;;;;;;12.99;66.33;99551.78;4455543;32;34730;-69
2023/01/05 11:54:31;;;;;;;;;;;;;;;13.35;64.74;99546.84;4458999;32;34402;-68
2023/01/05 11:57:25;;;;;;;;;;;;;;;13.61;64.02;99537.31;4469213;32;33285;-68
2023/01/05 11:59:54;;;;;;;;;;;;;;;13.48;64.49;99520.56;4465982;32;34254;-70
2023/01/05 12:02:28;;;;;;;;;;;;;;;13.34;64.95;99523.66;4468026;32;35189;-69
2023/01/05 12:05:05;;;;;;;;;;;;;;;12.69;67.24;99532.00;4470321;32;32568;-71
2023/01/05 12:07:33;;;;;;;;;;;;;;;13.12;65.92;99533.59;4455733;32;33149;-69
2023/01/05 12:10:01;;;;;;;;;;;;;;;12.74;67.28;99535.09;4460446;32;35160;-69
2023/01/05 12:12:47;;;;;;;;;;;;;;;12.74;67.17;99537.78;4474647;32;34161;-68
2023/01/05 12:15:14;;;;;;;;;;;;;;;12.84;66.58;99551.31;4454818;32;34320;-68
2023/01/05 12:18:00;;;;;;;;;;;;;;;12.60;67.68;99559.63;4460994;32;33202;-67
2023/01/05 12:20:28;;;;;;;;;;;;;;;12.09;68.98;99558.56;4471223;32;34059;-67
2023/01/05 12:22:55;;;;;;;;;;;;;;;11.62;70.71;99562.47;4469111;31;34280;-68
2023/01/05 12:25:34;;;;;;;;;;;;;;;11.80;69.78;99557.44;4469088;32;33841;-69
2023/01/05 12:28:08;;;;;;;;;;;;;;;11.84;69.81;99572.28;4456903;32;33212;-69
2023/01/05 12:30:37;;;;;;;;;;;;;;;11.46;71.44;99568.25;4454961;32;33966;-68
2023/01/05 12:34:00;;;;;;;;;;;;;;;11.37;71.88;99569.00;4466286;32;34156;-67
2023/01/05 12:36:39;;;;;;;;;;;;;;;11.55;71.53;99554.09;4403929;32;34135;-70
2023/01/05 12:39:20;;;;;;;;;;;;;;;11.47;71.96;99558.37;4460868;32;33584;-70
2023/01/05 12:41:52;;;;;;;;;;;;;;;11.50;71.61;99550.94;4455179;32;34868;-67
2023/01/05 12:44:26;;;;;;;;;;;;;;;11.56;71.75;99555.81;4471796;32;34285;-69
2023/01/05 12:46:53;;;;;;;;;;;;;;;11.36;72.85;99549.41;4468953;32;33852;-69
2023/01/05 12:49:23;;;;;;;;;;;;;;;11.49;72.04;99538.50;4477855;32;33474;-68
2023/01/05 12:51:55;;;;;;;;;;;;;;;11.59;71.56;99536.78;4455008;32;34127;-70
2023/01/05 12:54:30;;;;;;;;;;;;;;;11.67;71.08;99520.06;4473097;32;34171;-69
2023/01/05 12:57:06;;;;;;;;;;;;;;;11.53;71.12;99513.16;4452369;32;32773;-67
2023/01/05 12:59:36;;;;;;;;;;;;;;;11.59;71.39;99498.41;4463586;32;32673;-70
2023/01/05 13:02:07;;;;;;;;;;;;;;;11.80;70.51;99501.97;4458999;32;34453;-67
2023/01/05 13:04:39;;;;;;;;;;;;;;;11.88;70.08;99502.22;4463641;32;32710;-68
2023/01/05 13:07:19;;;;;;;;;;;;;;;11.39;71.93;99494.69;4471315;31;34087;-68
2023/01/05 13:09:47;;;;;;;;;;;;;;;11.59;71.16;99482.34;4456500;32;33579;-69
2023/01/05 13:12:14;;;;;;;;;;;;;;;11.53;70.74;99486.38;4454931;32;33971;-69
2023/01/05 13:14:51;;;;;;;;;;;;;;;11.36;71.93;99478.84;4473234;32;34648;-68
2023/01/05 13:17:23;;;;;;;;;;;;;;;11.35;71.87;99482.50;4449613;32;32637;-68
2023/01/05 13:19:53;;;;;;;;;;;;;;;11.60;70.86;99492.91;4456108;32;33445;-68
2023/01/05 13:22:21;;;;;;;;;;;;;;;11.58;70.49;99491.34;4468913;32;34722;-70
2023/01/05 13:24:49;;;;;;;;;;;;;;;11.31;71.74;99489.97;4471618;32;34551;-71
2023/01/05 13:27:16;;;;;;;;;;;;;;;10.99;73.22;99494.41;4472644;32;34138;-69
2023/01/05 13:29:47;;;;;;;;;;;;;;;11.00;73.33;99486.22;4466354;31;33029;-67
2023/01/05 13:32:24;;;;;;;;;;;;;;;11.18;72.79;99490.09;4467948;32;34169;-70
2023/01/05 13:34:54;;;;;;;;;;;;;;;11.19;72.72;99494.47;4468106;32;35358;-67
2023/01/05 13:37:25;;;;;;;;;;;;;;;11.15;72.61;99482.31;4464974;31;33088;-68